createdAt,value
2018-11-23T00:01:28.570Z,33.37
2018-11-23T00:03:57.358Z,35.60
2018-11-23T00:06:26.154Z,33.87
2018-11-23T00:08:56.275Z,34.67
2018-11-23T00:11:26.277Z,34.90
2018-11-23T00:13:55.109Z,32.87
2018-11-23T00:16:23.954Z,36.00
2018-11-23T00:18:53.198Z,32.80
2018-11-23T00:21:22.026Z,35.17
2018-11-23T00:23:50.867Z,34.70
2018-11-23T00:26:19.730Z,35.63
2018-11-23T00:28:49.402Z,37.57
2018-11-23T00:31:23.368Z,37.03
2018-11-23T00:33:52.166Z,35.67
2018-11-23T00:36:20.976Z,34.33
2018-11-23T00:38:49.761Z,35.97
2018-11-23T00:41:20.288Z,36.83
2018-11-23T00:43:51.645Z,36.13
2018-11-23T00:46:20.430Z,38.30
2018-11-23T00:48:50.356Z,37.37
2018-11-23T00:51:20.222Z,36.00
2018-11-23T00:53:49.802Z,35.20
2018-11-23T00:56:19.650Z,35.77
2018-11-23T00:58:48.703Z,33.80
2018-11-23T01:01:20.718Z,35.03
2018-11-23T01:03:49.571Z,33.43
2018-11-23T01:06:18.331Z,33.33
2018-11-23T01:08:47.362Z,34.60
2018-11-23T01:11:16.137Z,36.00
2018-11-23T01:13:45.202Z,34.40
2018-11-23T01:16:14.923Z,34.63
2018-11-23T01:18:43.742Z,30.23
2018-11-23T01:21:12.550Z,32.40
2018-11-23T01:23:42.012Z,32.23
2018-11-23T01:26:10.818Z,32.57
2018-11-23T01:28:39.611Z,31.47
2018-11-23T01:31:08.403Z,32.10
2018-11-23T01:33:37.346Z,32.67
2018-11-23T01:36:06.259Z,33.37
2018-11-23T01:38:35.030Z,32.27
2018-11-23T01:41:03.823Z,32.77
2018-11-23T01:43:32.606Z,33.37
2018-11-23T01:46:01.418Z,31.60
2018-11-23T01:48:30.239Z,32.33
2018-11-23T01:51:00.298Z,33.07
2018-11-23T01:53:29.335Z,33.07
2018-11-23T01:55:58.763Z,32.33
2018-11-23T01:58:27.581Z,31.43
2018-11-23T02:00:56.368Z,31.33
2018-11-23T02:03:25.451Z,30.67
2018-11-23T02:05:55.339Z,29.67
2018-11-23T02:08:24.323Z,29.37
2018-11-23T02:10:53.210Z,28.07
2018-11-23T02:13:22.578Z,30.03
2018-11-23T02:15:51.926Z,29.43
2018-11-23T02:18:20.703Z,29.17
2018-11-23T02:20:49.500Z,28.83
2018-11-23T02:23:18.530Z,28.23
2018-11-23T02:25:47.341Z,29.20
2018-11-23T02:28:16.094Z,28.20
2018-11-23T02:30:45.180Z,29.07
2018-11-23T02:33:20.203Z,27.10
2018-11-23T02:35:48.959Z,31.07
2018-11-23T02:38:18.791Z,28.87
2018-11-23T02:40:49.351Z,28.00
2018-11-23T02:43:24.574Z,27.03
2018-11-23T02:45:53.599Z,28.47
2018-11-23T02:48:22.415Z,27.43
2018-11-23T02:50:51.171Z,28.10
2018-11-23T02:53:19.982Z,26.50
2018-11-23T02:55:49.403Z,26.97
2018-11-23T02:58:18.188Z,26.80
2018-11-23T03:00:47.154Z,24.73
2018-11-23T03:03:15.962Z,26.77
2018-11-23T03:05:44.744Z,24.43
2018-11-23T03:08:14.216Z,27.63
2018-11-23T03:10:43.364Z,24.83
2018-11-23T03:13:12.185Z,26.43
2018-11-23T03:15:41.558Z,24.77
2018-11-23T03:18:10.322Z,24.33
2018-11-23T03:20:39.130Z,25.13
2018-11-23T03:23:07.899Z,23.90
2018-11-23T03:25:36.912Z,22.80
2018-11-23T03:28:05.721Z,22.47
2018-11-23T03:30:34.504Z,22.37
2018-11-23T03:33:04.271Z,23.50
2018-11-23T03:35:33.842Z,22.53
2018-11-23T03:38:03.258Z,24.37
2018-11-23T03:40:32.032Z,23.17
2018-11-23T03:43:00.835Z,22.07
2018-11-23T03:45:29.672Z,25.03
2018-11-23T03:47:59.424Z,23.27
2018-11-23T03:50:28.239Z,24.30
2018-11-23T03:52:57.008Z,24.23
2018-11-23T03:55:25.936Z,26.83
2018-11-23T03:57:54.780Z,20.70
2018-11-23T04:00:24.238Z,22.87
2018-11-23T04:02:53.160Z,23.20
2018-11-23T04:05:21.982Z,21.07
2018-11-23T04:07:50.855Z,22.83
2018-11-23T04:10:19.664Z,23.33
2018-11-23T04:12:48.402Z,23.73
2018-11-23T04:15:17.232Z,21.77
2018-11-23T04:17:46.876Z,22.53
2018-11-23T04:20:17.510Z,23.13
2018-11-23T04:22:47.109Z,21.90
2018-11-23T04:25:15.974Z,23.60
2018-11-23T04:27:44.856Z,23.87
2018-11-23T04:30:15.719Z,22.60
2018-11-23T04:32:44.983Z,22.40
2018-11-23T04:35:14.917Z,22.10
2018-11-23T04:37:44.378Z,23.90
2018-11-23T04:40:15.488Z,24.27
2018-11-23T04:42:44.424Z,22.70
2018-11-23T04:45:14.488Z,23.20
2018-11-23T04:47:43.263Z,22.57
2018-11-23T04:50:13.643Z,22.73
2018-11-23T04:52:43.572Z,22.37
2018-11-23T04:55:12.657Z,22.43
2018-11-23T04:57:41.751Z,21.23
2018-11-23T05:00:12.736Z,21.47
2018-11-23T05:02:42.643Z,19.63
2018-11-23T05:05:15.421Z,21.23
2018-11-23T05:07:50.880Z,23.83
2018-11-23T05:10:19.931Z,25.67
2018-11-23T05:12:49.759Z,22.73
2018-11-23T05:15:19.280Z,22.87
2018-11-23T05:17:48.268Z,24.40
2018-11-23T05:20:17.971Z,25.87
2018-11-23T05:22:50.086Z,24.57
2018-11-23T05:25:19.664Z,25.80
2018-11-23T05:27:48.513Z,23.83
2018-11-23T05:30:19.103Z,24.17
2018-11-23T05:32:48.132Z,20.03
2018-11-23T05:35:19.626Z,19.17
2018-11-23T05:37:48.656Z,19.23
2018-11-23T05:40:19.503Z,19.93
2018-11-23T05:42:48.335Z,18.93
2018-11-23T05:45:19.336Z,19.23
2018-11-23T05:47:51.312Z,20.17
2018-11-23T05:50:26.539Z,20.57
2018-11-23T05:52:55.952Z,21.23
2018-11-23T05:55:25.661Z,22.03
2018-11-23T05:57:54.485Z,22.10
2018-11-23T06:00:25.774Z,22.57
2018-11-23T06:02:54.677Z,20.87
2018-11-23T06:05:23.520Z,21.90
2018-11-23T06:07:52.399Z,20.33
2018-11-23T06:10:21.788Z,20.13
2018-11-23T06:12:51.602Z,21.77
2018-11-23T06:15:21.832Z,19.03
2018-11-23T06:17:53.062Z,19.47
2018-11-23T06:20:23.968Z,19.93
2018-11-23T06:22:53.757Z,18.97
2018-11-23T06:25:30.353Z,19.37
2018-11-23T06:27:59.236Z,19.20
2018-11-23T06:30:28.119Z,18.73
2018-11-23T06:33:07.972Z,19.60
2018-11-23T06:35:36.852Z,19.80
2018-11-23T06:38:05.851Z,18.73
2018-11-23T06:40:34.976Z,17.83
2018-11-23T06:43:03.834Z,17.67
2018-11-23T06:45:36.645Z,18.83
2018-11-23T06:48:07.174Z,19.40
2018-11-23T06:50:36.243Z,17.57
2018-11-23T06:53:06.733Z,16.13
2018-11-23T06:55:35.563Z,17.87
2018-11-23T06:58:05.403Z,17.80
2018-11-23T07:00:34.911Z,16.20
2018-11-23T07:03:04.970Z,18.03
2018-11-23T07:05:34.232Z,18.50
2018-11-23T07:08:04.488Z,18.03
2018-11-23T07:10:33.402Z,17.70
2018-11-23T07:13:02.243Z,17.53
2018-11-23T07:15:31.744Z,17.87
2018-11-23T07:18:01.872Z,18.27
2018-11-23T07:20:30.978Z,19.13
2018-11-23T07:23:04.403Z,17.97
2018-11-23T07:25:34.390Z,18.13
2018-11-23T07:28:03.475Z,18.37
2018-11-23T07:30:32.691Z,17.77
2018-11-23T07:33:01.822Z,17.63
2018-11-23T07:35:30.591Z,18.20
2018-11-23T07:37:59.475Z,19.57
2018-11-23T07:40:42.295Z,20.00
2018-11-23T07:43:11.406Z,20.37
2018-11-23T07:45:41.839Z,20.83
2018-11-23T07:48:11.166Z,19.10
2018-11-23T07:50:40.520Z,18.23
2018-11-23T07:53:11.932Z,21.33
2018-11-23T07:55:42.618Z,19.20
2018-11-23T07:58:12.486Z,19.43
2018-11-23T08:00:42.432Z,19.40
2018-11-23T08:03:14.406Z,17.77
2018-11-23T08:05:46.309Z,19.80
2018-11-23T08:08:15.216Z,18.43
2018-11-23T08:10:43.187Z,18.07
2018-11-23T08:13:12.087Z,18.97
2018-11-23T08:17:00.230Z,18.43
2018-11-23T08:19:29.175Z,17.93
2018-11-23T08:21:58.691Z,19.07
2018-11-23T08:24:27.783Z,17.73
2018-11-23T08:27:59.222Z,18.17
2018-11-23T08:30:29.776Z,18.17
2018-11-23T08:33:00.103Z,17.57
2018-11-23T08:35:28.911Z,17.93
2018-11-23T08:37:58.031Z,17.80
2018-11-23T08:40:27.666Z,17.43
2018-11-23T08:42:57.331Z,17.37
2018-11-23T08:45:27.604Z,18.53
2018-11-23T08:47:56.450Z,19.10
2018-11-23T08:50:29.330Z,18.50
2018-11-23T08:52:59.506Z,19.30
2018-11-23T08:55:29.058Z,19.60
2018-11-23T08:57:58.341Z,19.53
2018-11-23T09:00:28.830Z,20.50
2018-11-23T09:02:59.907Z,20.23
2018-11-23T09:05:28.879Z,20.57
2018-11-23T09:07:58.913Z,22.00
2018-11-23T09:10:30.166Z,20.87
2018-11-23T09:13:04.612Z,20.70
2018-11-23T09:15:34.228Z,21.80
2018-11-23T09:18:06.584Z,23.37
2018-11-23T09:20:36.545Z,22.10
2018-11-23T09:23:06.635Z,22.80
2018-11-23T09:25:36.410Z,23.17
2018-11-23T09:28:05.705Z,22.87
2018-11-23T09:30:34.710Z,21.93
2018-11-23T09:33:03.814Z,21.60
2018-11-23T09:35:34.214Z,24.50
2018-11-23T09:38:05.703Z,24.27
2018-11-23T09:40:35.988Z,23.10
2018-11-23T09:43:05.593Z,23.70
2018-11-23T09:45:34.925Z,23.80
2018-11-23T09:48:05.699Z,23.57
2018-11-23T09:50:36.084Z,23.53
2018-11-23T09:53:06.299Z,25.53
2018-11-23T09:55:37.550Z,24.17
2018-11-23T09:58:08.789Z,24.27
2018-11-23T10:00:38.159Z,23.63
2018-11-23T10:03:08.432Z,23.53
2018-11-23T10:05:37.418Z,23.53
2018-11-23T10:08:07.407Z,23.30
2018-11-23T10:10:36.557Z,23.93
2018-11-23T10:13:08.402Z,22.87
2018-11-23T10:15:45.365Z,23.57
2018-11-23T10:18:24.252Z,23.43
2018-11-23T10:20:58.458Z,21.90
2018-11-23T10:23:36.266Z,22.17
2018-11-23T10:26:06.658Z,23.80
2018-11-23T10:28:37.071Z,22.53
2018-11-23T10:31:09.254Z,23.73
2018-11-23T10:33:40.325Z,23.73
2018-11-23T10:36:12.828Z,22.90
2018-11-23T10:38:43.265Z,22.67
2018-11-23T10:41:13.524Z,22.40
2018-11-23T10:43:45.124Z,26.67
2018-11-23T10:46:13.948Z,25.27
2018-11-23T10:48:43.180Z,24.17
2018-11-23T10:51:12.275Z,23.67
2018-11-23T10:53:43.191Z,21.70
2018-11-23T10:56:12.111Z,22.30
2018-11-23T10:58:41.385Z,23.23
2018-11-23T11:01:15.547Z,22.03
2018-11-23T11:03:56.753Z,21.37
2018-11-23T11:09:31.324Z,22.93
2018-11-23T11:12:00.621Z,21.97
2018-11-23T11:14:29.705Z,23.07
2018-11-23T11:16:59.387Z,24.03
2018-11-23T11:19:29.136Z,24.23
2018-11-23T11:21:58.030Z,24.30
2018-11-23T11:24:27.215Z,23.50
2018-11-23T11:26:58.138Z,25.63
2018-11-23T11:29:28.310Z,25.10
2018-11-23T11:31:58.286Z,24.03
2018-11-23T11:34:27.229Z,25.10
2018-11-23T11:36:56.218Z,25.30
2018-11-23T11:39:25.210Z,25.77
2018-11-23T11:41:54.368Z,25.37
2018-11-23T11:44:23.366Z,27.37
2018-11-23T11:46:52.215Z,25.67
2018-11-23T11:49:22.321Z,25.40
2018-11-23T11:51:51.621Z,24.83
2018-11-23T11:55:40.141Z,26.33
2018-11-23T11:58:09.178Z,24.57
2018-11-23T12:00:38.362Z,26.50
2018-11-23T12:03:14.031Z,24.87
2018-11-23T12:05:42.976Z,26.73
2018-11-23T12:08:12.114Z,23.97
2018-11-23T12:10:41.351Z,24.80
2018-11-23T12:13:12.530Z,26.83
2018-11-23T12:15:42.336Z,26.50
2018-11-23T12:18:12.137Z,25.10
2018-11-23T12:20:42.752Z,25.50
2018-11-23T12:23:12.095Z,24.53
2018-11-23T12:25:41.048Z,24.97
2018-11-23T12:28:10.521Z,24.37
2018-11-23T12:30:42.338Z,24.73
2018-11-23T12:33:11.944Z,24.87
2018-11-23T12:35:41.875Z,25.00
2018-11-23T12:38:22.087Z,25.33
2018-11-23T12:40:51.327Z,25.17
2018-11-23T12:43:23.287Z,24.97
2018-11-23T12:45:55.293Z,24.93
2018-11-23T12:48:34.360Z,24.50
2018-11-23T12:51:10.059Z,26.70
2018-11-23T12:53:46.471Z,24.80
2018-11-23T12:56:18.328Z,25.77
2018-11-23T12:58:52.123Z,25.30
2018-11-23T13:04:03.655Z,24.27
2018-11-23T13:06:37.310Z,23.17
2018-11-23T13:09:09.122Z,21.83
2018-11-23T13:11:42.697Z,22.33
2018-11-23T13:14:13.148Z,24.37
2018-11-23T13:16:42.287Z,23.40
2018-11-23T13:19:12.228Z,24.27
2018-11-23T13:24:20.138Z,24.77
2018-11-23T13:26:49.032Z,23.53
2018-11-23T13:29:18.250Z,24.00
2018-11-23T13:31:50.343Z,22.73
2018-11-23T13:34:24.375Z,26.40
2018-11-23T13:36:57.460Z,24.77
2018-11-23T13:39:33.237Z,24.20
2018-11-23T13:47:04.313Z,25.87
2018-11-23T13:49:40.415Z,22.50
2018-11-23T13:52:17.648Z,23.73
2018-11-23T13:54:49.204Z,26.53
2018-11-23T13:57:20.280Z,27.40
2018-11-23T13:59:50.340Z,26.93
2018-11-23T14:02:19.925Z,26.40
2018-11-23T14:04:49.925Z,26.27
2018-11-23T14:07:22.060Z,25.90
2018-11-23T14:09:51.257Z,25.70
2018-11-23T14:19:17.274Z,24.83
2018-11-23T14:21:47.617Z,24.20
2018-11-23T14:24:17.737Z,23.83
2018-11-23T14:26:46.649Z,24.30
2018-11-23T14:29:15.597Z,23.90
2018-11-23T14:31:45.347Z,24.67
2018-11-23T14:34:15.327Z,25.03
2018-11-23T14:38:03.566Z,24.30
2018-11-23T14:40:34.489Z,25.43
2018-11-23T14:43:03.747Z,26.13
2018-11-23T14:45:36.271Z,23.67
2018-11-23T14:48:06.780Z,24.83
2018-11-23T14:50:42.475Z,24.43
2018-11-23T14:53:12.095Z,25.50
2018-11-23T14:55:41.049Z,25.03
2018-11-23T14:58:11.474Z,26.27
2018-11-23T15:00:47.040Z,24.93
2018-11-23T15:03:16.940Z,25.27
2018-11-23T15:05:46.221Z,25.90
2018-11-23T15:08:22.523Z,24.73
2018-11-23T15:10:53.166Z,24.13
2018-11-23T15:13:23.109Z,24.90
2018-11-23T15:15:52.769Z,25.57
2018-11-23T15:18:23.448Z,25.10
2018-11-23T15:20:53.255Z,26.60
2018-11-23T15:23:22.124Z,26.97
2018-11-23T15:25:52.769Z,28.17
2018-11-23T15:28:57.758Z,25.33
2018-11-23T15:31:26.670Z,25.63
2018-11-23T15:33:55.582Z,26.03
2018-11-23T15:36:27.657Z,25.77
2018-11-23T15:38:57.355Z,23.83
2018-11-23T15:41:27.823Z,25.13
2018-11-23T15:43:56.746Z,24.63
2018-11-23T15:46:30.193Z,25.17
2018-11-23T15:48:59.683Z,24.03
2018-11-23T15:51:28.764Z,24.43
2018-11-23T15:54:00.225Z,25.83
2018-11-23T15:56:29.229Z,25.53
2018-11-23T15:58:58.547Z,26.47
2018-11-23T16:01:28.699Z,23.50
2018-11-23T16:03:59.176Z,25.60
2018-11-23T16:06:29.628Z,26.00
2018-11-23T16:08:58.627Z,26.63
2018-11-23T16:11:28.662Z,25.10
2018-11-23T16:13:59.182Z,26.47
2018-11-23T16:16:28.163Z,27.97
2018-11-23T16:18:58.734Z,26.57
2018-11-23T16:21:29.656Z,26.73
2018-11-23T16:23:58.655Z,27.80
2018-11-23T16:26:28.115Z,27.17
2018-11-23T16:28:59.717Z,27.93
2018-11-23T16:31:29.715Z,27.57
2018-11-23T16:33:59.211Z,28.37
2018-11-23T16:36:29.652Z,27.00
2018-11-23T16:38:59.937Z,27.00
2018-11-23T16:41:29.128Z,26.27
2018-11-23T16:44:03.282Z,28.50
2018-11-23T16:46:33.192Z,27.50
2018-11-23T16:49:10.179Z,27.47
2018-11-23T16:51:39.059Z,28.60
2018-11-23T16:54:09.443Z,30.27
2018-11-23T16:56:47.771Z,27.30
2018-11-23T16:59:19.624Z,29.40
2018-11-23T17:01:49.293Z,30.60
2018-11-23T17:04:19.575Z,29.20
2018-11-23T17:06:49.754Z,27.70
2018-11-23T17:09:18.836Z,29.00
2018-11-23T17:11:56.914Z,29.70
2018-11-23T17:14:27.364Z,32.40
2018-11-23T17:16:56.771Z,30.07
2018-11-23T17:19:26.999Z,30.80
2018-11-23T17:21:58.881Z,30.93
2018-11-23T17:24:31.351Z,31.83
2018-11-23T17:27:01.040Z,31.43
2018-11-23T17:29:30.375Z,30.10
2018-11-23T17:32:06.208Z,30.97
2018-11-23T17:34:35.331Z,29.83
2018-11-23T17:37:04.438Z,29.77
2018-11-23T17:39:35.534Z,31.67
2018-11-23T17:42:11.573Z,33.83
2018-11-23T17:44:43.303Z,34.23
2018-11-23T17:47:16.530Z,30.17
2018-11-23T17:49:47.359Z,32.13
2018-11-23T17:52:18.617Z,28.90
2018-11-23T17:54:47.817Z,29.87
2018-11-23T17:57:17.883Z,29.97
2018-11-23T17:59:48.453Z,30.63
2018-11-23T18:02:20.709Z,31.93
2018-11-23T18:04:57.885Z,35.13
2018-11-23T18:07:30.179Z,30.97
2018-11-23T18:10:09.311Z,31.17
2018-11-23T18:13:09.738Z,31.33
2018-11-23T18:15:51.547Z,30.50
2018-11-23T18:23:28.348Z,40.63
2018-11-23T18:26:09.160Z,30.83
2018-11-23T18:28:50.854Z,31.73
2018-11-23T18:31:35.863Z,34.40
2018-11-23T18:34:07.353Z,32.53
2018-11-23T18:36:38.687Z,38.87
2018-11-23T18:39:13.789Z,38.73
2018-11-23T18:41:46.797Z,34.77
2018-11-23T18:44:17.673Z,36.43
2018-11-23T18:46:47.839Z,34.13
2018-11-23T18:49:23.333Z,35.53
2018-11-23T18:51:52.268Z,38.10
2018-11-23T18:54:23.237Z,33.57
2018-11-23T18:56:52.755Z,32.30
2018-11-23T18:59:24.201Z,30.90
2018-11-23T19:01:54.427Z,30.47
2018-11-23T19:04:23.445Z,33.80
2018-11-23T19:06:54.293Z,32.70
2018-11-23T19:09:25.071Z,29.73
2018-11-23T19:11:55.866Z,30.77
2018-11-23T19:14:26.974Z,29.53
2018-11-23T19:16:57.657Z,29.13
2018-11-23T19:19:31.970Z,29.00
2018-11-23T19:22:06.944Z,31.93
2018-11-23T19:24:41.361Z,29.83
2018-11-23T19:27:11.725Z,33.57
2018-11-23T19:29:42.271Z,31.83
2018-11-23T19:32:14.259Z,35.07
2018-11-23T19:34:45.464Z,33.53
2018-11-23T19:37:16.269Z,32.67
2018-11-23T19:39:45.550Z,33.47
2018-11-23T19:42:15.304Z,34.53
2018-11-23T19:44:46.342Z,37.93
2018-11-23T19:47:19.271Z,33.30
2018-11-23T19:49:51.226Z,30.23
2018-11-23T19:52:25.269Z,33.33
2018-11-23T19:54:55.171Z,32.63
2018-11-23T19:57:31.396Z,30.73
2018-11-23T20:00:02.164Z,32.77
2018-11-23T20:02:33.742Z,28.93
2018-11-23T20:05:05.304Z,29.43
2018-11-23T20:07:44.826Z,31.60
2018-11-23T20:10:18.743Z,28.60
2018-11-23T20:12:49.404Z,30.00
2018-11-23T20:15:22.491Z,26.43
2018-11-23T20:17:54.436Z,28.40
2018-11-23T20:20:24.376Z,34.63
2018-11-23T20:23:05.268Z,27.17
2018-11-23T20:25:38.478Z,26.63
2018-11-23T20:28:10.073Z,39.47
2018-11-23T20:30:44.662Z,30.33
2018-11-23T20:33:16.843Z,28.73
2018-11-23T20:35:48.317Z,29.07
2018-11-23T20:43:23.842Z,31.00
2018-11-23T20:45:59.851Z,39.40
2018-11-23T20:48:30.534Z,43.60
2018-11-23T20:51:08.245Z,41.00
2018-11-23T20:53:39.564Z,39.73
2018-11-23T20:56:22.531Z,39.10
2018-11-23T20:58:56.362Z,42.77
2018-11-23T21:01:27.827Z,25.57
2018-11-23T21:03:59.328Z,46.40
2018-11-23T21:06:32.204Z,45.37
2018-11-23T21:09:12.442Z,34.20
2018-11-23T21:11:42.642Z,37.33
2018-11-23T21:14:16.324Z,30.73
2018-11-23T21:16:48.200Z,38.00
2018-11-23T21:19:18.239Z,39.17
2018-11-23T21:21:47.592Z,31.87
2018-11-23T21:24:16.373Z,33.20
2018-11-23T21:26:45.194Z,40.20
2018-11-23T21:29:16.358Z,29.27
2018-11-23T21:31:51.659Z,25.57
2018-11-23T21:34:21.534Z,28.13
2018-11-23T21:36:51.363Z,33.73
2018-11-23T21:39:21.697Z,32.40
2018-11-23T21:41:52.605Z,26.97
2018-11-23T21:44:21.478Z,27.73
2018-11-23T21:46:50.982Z,32.63
2018-11-23T21:49:20.086Z,29.00
2018-11-23T21:51:49.375Z,17.93
2018-11-23T21:54:19.152Z,26.03
2018-11-23T21:56:52.377Z,24.47
2018-11-23T21:59:21.432Z,22.77
2018-11-23T22:01:51.458Z,20.83
2018-11-23T22:04:23.017Z,17.43
2018-11-23T22:06:55.859Z,20.17
2018-11-23T22:09:26.012Z,36.07
2018-11-23T22:11:57.218Z,27.20
2018-11-23T22:14:27.763Z,26.47
2018-11-23T22:16:57.930Z,23.77
2018-11-23T22:19:27.181Z,16.13
2018-11-23T22:21:56.630Z,16.07
2018-11-23T22:24:27.153Z,23.43
2018-11-23T22:26:56.664Z,21.33
2018-11-23T22:29:25.535Z,25.53
2018-11-23T22:31:56.012Z,23.17
2018-11-23T22:34:25.314Z,26.17
2018-11-23T22:36:54.574Z,24.87
2018-11-23T22:39:26.710Z,21.67
2018-11-23T22:41:57.223Z,24.60
2018-11-23T22:44:28.277Z,21.80
2018-11-23T22:46:57.367Z,18.70
2018-11-23T22:49:26.366Z,22.53
2018-11-23T22:52:00.389Z,18.30
2018-11-23T22:54:34.531Z,16.87
2018-11-23T22:57:11.578Z,18.00
2018-11-23T22:59:36.360Z,16.80
2018-11-23T23:02:05.136Z,18.87
2018-11-23T23:04:35.244Z,14.77
2018-11-23T23:07:04.747Z,15.97
2018-11-23T23:09:37.683Z,21.97
2018-11-23T23:12:08.028Z,16.73
2018-11-23T23:14:39.369Z,21.63
2018-11-23T23:17:09.125Z,27.23
2018-11-23T23:19:39.114Z,17.03
2018-11-23T23:22:09.504Z,20.10
2018-11-23T23:24:38.364Z,19.63
2018-11-23T23:27:07.227Z,19.27
2018-11-23T23:29:37.453Z,21.53
2018-11-23T23:32:09.176Z,22.73
2018-11-23T23:34:39.316Z,19.57
2018-11-23T23:37:09.546Z,26.27
2018-11-23T23:39:40.391Z,20.37
2018-11-23T23:43:28.481Z,22.93
2018-11-23T23:45:59.514Z,17.60
2018-11-23T23:48:29.177Z,17.53
2018-11-23T23:52:18.382Z,14.50
2018-11-23T23:54:47.167Z,17.23
2018-11-23T23:57:17.286Z,20.10
2018-11-23T23:59:46.871Z,15.77
